Time;durP1;ratioP1;P1;durP2;ratioP2;P2;SDS_P1;SDS_P2;PMS_P1;PMS_P2;Temp;Humidity;BMP_temperature;BMP_pressure;BME280_temperature;BME280_humidity;BME280_pressure;Samples;Min_cycle;Max_cycle;Signal;HPM_P1;HPM_P2
2021/12/14 00:02:15;;;;;;;9.37;6.93;;;8.40;1.00;;;;;;5043193;28;20188;-58
2021/12/14 00:04:42;;;;;;;8.07;6.83;;;8.40;1.00;;;;;;5042043;28;20250;-58
2021/12/14 00:07:12;;;;;;;8.20;6.40;;;8.40;1.00;;;;;;5022780;28;20218;-58
2021/12/14 00:09:41;;;;;;;8.27;7.07;;;8.40;1.00;;;;;;5040938;28;20183;-59
2021/12/14 00:17:33;;;;;;;8.00;6.93;;;8.40;1.00;;;;;;5025547;28;20211;-58
2021/12/14 00:20:06;;;;;;;7.57;6.73;;;8.40;1.00;;;;;;5023103;28;20207;-58
2021/12/14 00:25:19;;;;;;;8.40;7.00;;;8.40;1.00;;;;;;5021314;28;20674;-59
2021/12/14 00:27:46;;;;;;;6.70;6.00;;;8.40;1.00;;;;;;5039710;28;20219;-59
2021/12/14 00:30:13;;;;;;;8.80;7.17;;;8.30;1.00;;;;;;5041125;28;20266;-60
2021/12/14 00:32:40;;;;;;;7.17;6.47;;;8.40;1.00;;;;;;5041039;28;20699;-58
2021/12/14 00:35:12;;;;;;;8.57;6.87;;;8.40;1.00;;;;;;5022522;28;20607;-58
2021/12/14 00:37:53;;;;;;;8.50;6.67;;;8.40;1.00;;;;;;5039161;28;20191;-58
2021/12/14 00:40:29;;;;;;;6.57;5.87;;;8.30;1.00;;;;;;5040024;28;20322;-58
2021/12/14 00:42:58;;;;;;;8.83;6.27;;;8.30;1.00;;;;;;5038792;28;20196;-58
2021/12/14 00:45:28;;;;;;;8.10;6.77;;;8.30;99.90;;;;;;5039228;28;20276;-56
2021/12/14 00:47:56;;;;;;;8.70;6.00;;;8.40;1.00;;;;;;5039297;28;20188;-59
2021/12/14 00:50:26;;;;;;;6.73;6.00;;;8.30;1.00;;;;;;5021560;28;20204;-57
2021/12/14 00:52:53;;;;;;;6.63;5.93;;;8.40;99.90;;;;;;5037844;28;20207;-57
2021/12/14 00:55:30;;;;;;;7.43;5.97;;;8.30;1.00;;;;;;5024052;28;20298;-57
2021/12/14 00:57:58;;;;;;;6.20;5.60;;;8.30;1.00;;;;;;5041126;28;20214;-58
2021/12/14 01:00:32;;;;;;;9.63;5.57;;;8.40;1.00;;;;;;5022894;28;20224;-58
2021/12/14 01:03:01;;;;;;;5.47;4.97;;;8.40;99.90;;;;;;5038607;28;20191;-58
2021/12/14 01:05:32;;;;;;;6.10;5.50;;;8.40;99.90;;;;;;5021306;28;20958;-58
2021/12/14 01:08:01;;;;;;;5.87;5.23;;;8.40;99.90;;;;;;5020813;28;20215;-56
2021/12/14 01:10:35;;;;;;;7.73;5.67;;;8.40;99.90;;;;;;5014956;28;20209;-57
2021/12/14 01:13:06;;;;;;;5.40;4.83;;;8.40;99.90;;;;;;5019945;28;20200;-57
2021/12/14 01:15:51;;;;;;;7.33;5.07;;;8.30;99.90;;;;;;5038169;28;20254;-56
2021/12/14 01:18:44;;;;;;;5.17;4.67;;;8.40;99.90;;;;;;5023194;28;20205;-57
2021/12/14 01:21:42;;;;;;;6.33;5.43;;;8.30;99.90;;;;;;5021986;28;20224;-58
2021/12/14 01:27:05;;;;;;;6.03;5.23;;;8.30;99.90;;;;;;5039945;28;20212;-56
2021/12/14 01:29:32;;;;;;;7.33;5.20;;;8.30;99.90;;;;;;5036875;28;20226;-56
2021/12/14 01:32:02;;;;;;;5.80;5.20;;;8.30;99.90;;;;;;5020016;28;20192;-56
2021/12/14 01:34:31;;;;;;;6.20;5.27;;;8.30;99.90;;;;;;5022079;28;20184;-57
2021/12/14 01:37:05;;;;;;;5.60;5.10;;;8.30;99.90;;;;;;5037347;28;20207;-58
2021/12/14 01:42:10;;;;;;;5.50;5.00;;;8.30;99.90;;;;;;5038684;28;20190;-57
2021/12/14 01:44:45;;;;;;;5.63;4.87;;;8.30;99.90;;;;;;5037802;28;20275;-59
2021/12/14 01:47:21;;;;;;;5.93;5.33;;;8.20;99.90;;;;;;5007093;28;20254;-58
2021/12/14 01:50:12;;;;;;;5.70;4.63;;;8.30;99.90;;;;;;5021596;28;20811;-58
2021/12/14 01:53:03;;;;;;;5.70;4.90;;;8.30;99.90;;;;;;5025409;28;20331;-58
2021/12/14 01:55:34;;;;;;;5.10;4.50;;;8.30;99.90;;;;;;5018628;28;20210;-58
2021/12/14 01:58:04;;;;;;;5.83;4.80;;;8.20;99.90;;;;;;5038781;28;20204;-66
2021/12/14 02:00:44;;;;;;;4.93;4.43;;;8.30;99.90;;;;;;5021960;28;20243;-59
2021/12/14 02:03:14;;;;;;;6.27;4.93;;;8.20;99.90;;;;;;5039863;28;20188;-57
2021/12/14 02:05:47;;;;;;;5.17;4.57;;;8.20;99.90;;;;;;5011064;28;20195;-59
2021/12/14 02:08:24;;;;;;;7.23;5.57;;;8.20;99.90;;;;;;5022108;28;20909;-58
2021/12/14 02:10:53;;;;;;;5.47;4.83;;;8.30;99.90;;;;;;5038029;28;20199;-58
2021/12/14 02:13:44;;;;;;;5.00;4.33;;;8.20;99.90;;;;;;5016377;28;20704;-57
2021/12/14 02:16:19;;;;;;;5.27;4.77;;;8.20;99.90;;;;;;5036994;28;20204;-58
2021/12/14 02:19:01;;;;;;;7.03;5.27;;;8.20;99.90;;;;;;5021786;28;20226;-59
2021/12/14 02:21:29;;;;;;;6.17;4.60;;;8.20;99.90;;;;;;5040551;28;20293;-58
2021/12/14 02:23:59;;;;;;;5.63;5.03;;;8.20;99.90;;;;;;5019389;28;20219;-58
2021/12/14 02:26:30;;;;;;;5.37;4.83;;;8.20;99.90;;;;;;5026990;28;20837;-57
2021/12/14 02:28:59;;;;;;;5.73;5.10;;;8.20;99.90;;;;;;5036795;28;20188;-56
2021/12/14 02:31:29;;;;;;;5.80;5.20;;;8.20;99.90;;;;;;5037635;28;20199;-59
2021/12/14 02:34:00;;;;;;;5.10;4.23;;;8.20;99.90;;;;;;5024561;28;20254;-58
2021/12/14 02:36:39;;;;;;;5.43;4.50;;;8.20;99.90;;;;;;5036072;28;20804;-60
2021/12/14 02:39:22;;;;;;;5.70;4.93;;;8.20;99.90;;;;;;5036035;28;20231;-59
2021/12/14 02:41:54;;;;;;;5.27;4.50;;;8.20;99.90;;;;;;5020784;28;20211;-60
2021/12/14 02:44:24;;;;;;;6.40;5.00;;;8.20;99.90;;;;;;5020044;28;20216;-58
2021/12/14 02:46:55;;;;;;;5.10;4.60;;;8.10;99.90;;;;;;5020736;28;20196;-58
2021/12/14 02:49:28;;;;;;;4.90;4.40;;;8.10;1.00;;;;;;5037637;28;20204;-57
2021/12/14 02:52:02;;;;;;;5.10;4.40;;;8.10;99.90;;;;;;5020295;28;20195;-58
2021/12/14 02:54:33;;;;;;;4.80;4.40;;;8.10;99.90;;;;;;5037839;28;20207;-57
2021/12/14 02:57:11;;;;;;;6.30;4.10;;;8.10;99.90;;;;;;5037405;28;20273;-57
2021/12/14 02:59:43;;;;;;;6.13;4.47;;;8.20;99.90;;;;;;5019341;28;20205;-57
2021/12/14 03:02:14;;;;;;;4.97;4.47;;;8.20;99.90;;;;;;5020036;28;20214;-57
2021/12/14 03:04:45;;;;;;;5.83;4.73;;;8.20;99.90;;;;;;5020617;28;20220;-58
2021/12/14 03:07:15;;;;;;;6.80;4.10;;;8.10;99.90;;;;;;5017524;28;23419;-58
2021/12/14 03:12:27;;;;;;;4.90;4.40;;;8.20;99.90;;;;;;5037724;28;20728;-57
2021/12/14 03:15:00;;;;;;;5.57;4.77;;;8.20;99.90;;;;;;5016740;28;20215;-57
2021/12/14 03:17:28;;;;;;;6.20;4.83;;;8.10;99.90;;;;;;5020543;28;20332;-57
2021/12/14 03:20:04;;;;;;;5.73;4.40;;;8.10;1.00;;;;;;5021317;28;20219;-57
2021/12/14 03:22:42;;;;;;;4.83;4.30;;;8.10;1.00;;;;;;5039801;28;20187;-60
2021/12/14 03:25:13;;;;;;;6.83;4.43;;;8.10;1.00;;;;;;5021245;28;20215;-58
2021/12/14 03:27:43;;;;;;;5.90;4.97;;;8.00;1.00;;;;;;5037369;28;20287;-59
2021/12/14 03:30:33;;;;;;;7.30;5.20;;;8.10;1.00;;;;;;5037214;28;20208;-57
2021/12/14 03:33:16;;;;;;;5.97;4.80;;;8.00;1.00;;;;;;5022490;28;20207;-58
2021/12/14 03:35:49;;;;;;;6.13;4.90;;;8.00;1.00;;;;;;5036535;28;20191;-57
2021/12/14 03:38:50;;;;;;;5.77;4.83;;;8.10;1.00;;;;;;5022188;28;20180;-59
2021/12/14 03:41:41;;;;;;;5.77;4.80;;;8.00;1.00;;;;;;5030230;28;20305;-58
2021/12/14 03:44:17;;;;;;;6.53;5.43;;;8.00;1.00;;;;;;5008994;28;20691;-57
2021/12/14 03:46:57;;;;;;;6.10;5.50;;;8.10;1.00;;;;;;5034453;28;20216;-57
2021/12/14 03:49:31;;;;;;;8.30;5.60;;;8.00;1.00;;;;;;5020623;28;20194;-57
2021/12/14 03:52:00;;;;;;;7.17;5.27;;;8.00;1.00;;;;;;5004574;28;20286;-58
2021/12/14 03:54:28;;;;;;;7.47;5.53;;;8.00;1.00;;;;;;5037908;28;20562;-58
2021/12/14 03:56:55;;;;;;;8.33;5.10;;;8.00;1.00;;;;;;5031535;28;20720;-57
2021/12/14 03:59:29;;;;;;;6.03;4.63;;;8.00;1.00;;;;;;5037672;28;20211;-58
2021/12/14 04:01:59;;;;;;;7.57;5.90;;;8.00;1.00;;;;;;5042577;28;20563;-58
2021/12/14 04:04:36;;;;;;;9.47;5.57;;;8.00;1.00;;;;;;5022970;28;20295;-59
2021/12/14 04:07:07;;;;;;;8.43;5.33;;;8.00;1.00;;;;;;5022687;28;20331;-59
2021/12/14 04:09:37;;;;;;;6.97;5.50;;;8.00;1.00;;;;;;5023280;28;20191;-59
2021/12/14 04:12:08;;;;;;;7.60;5.93;;;8.00;1.00;;;;;;5022163;28;20670;-58
2021/12/14 04:14:45;;;;;;;9.47;6.47;;;8.00;1.00;;;;;;5038014;28;20202;-58
2021/12/14 04:17:14;;;;;;;7.27;6.47;;;8.00;1.00;;;;;;5026301;28;20778;-59
2021/12/14 04:19:43;;;;;;;8.00;6.90;;;8.00;1.00;;;;;;5040482;28;20203;-58
2021/12/14 04:22:19;;;;;;;8.07;5.57;;;7.90;1.00;;;;;;5029503;28;20211;-58
2021/12/14 04:24:51;;;;;;;8.30;6.53;;;8.00;1.00;;;;;;5028068;28;20191;-58
2021/12/14 04:27:24;;;;;;;10.67;7.20;;;8.10;1.00;;;;;;5039673;28;20258;-58
2021/12/14 04:29:52;;;;;;;8.53;6.40;;;8.10;1.00;;;;;;5034458;28;20188;-59
2021/12/14 04:32:21;;;;;;;10.70;6.93;;;8.10;1.00;;;;;;5022792;28;20230;-57
2021/12/14 04:34:49;;;;;;;10.47;6.73;;;8.10;1.00;;;;;;5033378;28;20203;-58
2021/12/14 04:37:19;;;;;;;8.03;6.43;;;8.00;1.00;;;;;;5023910;28;20239;-58
2021/12/14 04:39:53;;;;;;;12.00;8.30;;;8.00;1.00;;;;;;5022513;28;20594;-58
2021/12/14 04:53:56;;;;;;;12.53;8.20;;;8.10;1.00;;;;;;5041437;28;20659;-57
2021/12/14 04:56:28;;;;;;;12.27;9.50;;;8.00;1.00;;;;;;5023582;28;20195;-57
2021/12/14 04:59:24;;;;;;;12.67;8.27;;;8.00;1.00;;;;;;5023359;28;20204;-57
2021/12/14 05:01:57;;;;;;;11.43;8.87;;;8.00;1.00;;;;;;5016582;28;20216;-56
2021/12/14 05:04:52;;;;;;;10.40;8.47;;;8.00;1.00;;;;;;5024399;28;20215;-56
2021/12/14 05:09:56;;;;;;;13.40;9.93;;;8.00;1.00;;;;;;5020513;28;20282;-58
2021/12/14 05:12:30;;;;;;;10.00;7.97;;;8.00;5.40;;;;;;5019239;28;20195;-59
2021/12/14 05:15:14;;;;;;;12.87;10.13;;;7.90;61.70;;;;;;5020937;28;20200;-57
2021/12/14 05:17:48;;;;;;;11.00;8.30;;;8.00;18.00;;;;;;5029402;28;20203;-58
2021/12/14 05:20:16;;;;;;;11.87;8.87;;;8.00;23.20;;;;;;5024649;28;20672;-58
2021/12/14 05:22:46;;;;;;;12.93;10.63;;;8.00;23.80;;;;;;5023133;28;20209;-56
2021/12/14 05:25:25;;;;;;;12.80;10.20;;;7.90;91.20;;;;;;5023247;28;20765;-59
2021/12/14 05:28:01;;;;;;;15.03;10.63;;;7.90;99.90;;;;;;5023062;28;20285;-58
2021/12/14 05:30:37;;;;;;;13.33;10.03;;;7.90;99.90;;;;;;5041598;28;20651;-59
2021/12/14 05:33:18;;;;;;;18.53;15.30;;;7.90;99.90;;;;;;5040522;28;20199;-58
2021/12/14 05:35:47;;;;;;;18.63;11.87;;;7.90;99.90;;;;;;5022151;28;20595;-59
2021/12/14 05:38:22;;;;;;;17.67;12.00;;;7.90;99.90;;;;;;5037630;28;20783;-57
2021/12/14 05:43:25;;;;;;;16.13;10.60;;;7.90;1.00;;;;;;5040549;28;20203;-59
2021/12/14 05:46:21;;;;;;;15.07;11.67;;;7.80;1.00;;;;;;5038432;28;20208;-58
2021/12/14 05:49:11;;;;;;;14.43;11.60;;;7.80;1.00;;;;;;5040445;28;20716;-57
2021/12/14 05:51:39;;;;;;;15.57;11.60;;;7.80;26.50;;;;;;5040274;28;20206;-57
2021/12/14 05:54:07;;;;;;;18.47;12.93;;;7.70;99.90;;;;;;5023170;28;20200;-58
2021/12/14 05:56:34;;;;;;;18.33;13.00;;;7.70;99.90;;;;;;5036501;28;20208;-57
2021/12/14 05:59:02;;;;;;;21.13;14.27;;;7.70;99.90;;;;;;5026359;28;20207;-57
2021/12/14 06:01:33;;;;;;;20.73;13.83;;;7.70;1.00;;;;;;5024749;28;20242;-57
2021/12/14 06:04:08;;;;;;;18.47;14.03;;;7.70;1.00;;;;;;5038803;28;20298;-58
2021/12/14 06:06:43;;;;;;;22.00;14.53;;;7.60;1.00;;;;;;5037608;28;20195;-56
2021/12/14 06:09:14;;;;;;;18.40;14.60;;;7.70;1.00;;;;;;5036999;28;20192;-58
2021/12/14 06:11:59;;;;;;;22.90;15.00;;;7.60;1.00;;;;;;5021870;28;20222;-57
2021/12/14 06:14:29;;;;;;;27.40;15.77;;;7.60;1.00;;;;;;5022140;28;20728;-57
2021/12/14 06:17:00;;;;;;;21.13;14.87;;;7.60;74.70;;;;;;5036393;28;20675;-57
2021/12/14 06:19:39;;;;;;;25.30;16.73;;;7.60;99.90;;;;;;5027261;28;20226;-58
2021/12/14 06:22:14;;;;;;;26.53;16.93;;;7.60;99.90;;;;;;5018619;28;20770;-58
2021/12/14 06:24:47;;;;;;;29.70;17.90;;;7.60;99.90;;;;;;5016574;28;20218;-58
2021/12/14 06:27:20;;;;;;;24.43;16.50;;;7.50;99.90;;;;;;5021967;28;20282;-57
2021/12/14 06:29:54;;;;;;;21.47;16.17;;;7.50;1.00;;;;;;5037882;28;20196;-58
2021/12/14 06:32:31;;;;;;;25.33;17.50;;;7.60;1.00;;;;;;5037629;28;20198;-57
2021/12/14 06:35:23;;;;;;;27.27;17.47;;;7.50;1.00;;;;;;5026184;28;20202;-57
2021/12/14 06:38:24;;;;;;;31.00;18.17;;;7.50;1.00;;;;;;5021897;28;20287;-57
2021/12/14 06:41:27;;;;;;;26.20;17.97;;;7.50;1.00;;;;;;5036503;28;20235;-57
2021/12/14 06:43:59;;;;;;;25.77;17.83;;;7.60;1.00;;;;;;5039279;28;20250;-57
2021/12/14 06:46:34;;;;;;;28.23;18.77;;;7.60;1.00;;;;;;5035508;28;20196;-59
2021/12/14 06:49:03;;;;;;;28.83;18.23;;;7.60;1.00;;;;;;5025341;28;20255;-59
2021/12/14 06:51:37;;;;;;;27.43;19.03;;;7.60;1.00;;;;;;5035848;28;20875;-57
2021/12/14 06:54:15;;;;;;;26.40;18.27;;;7.60;1.00;;;;;;5026381;28;20667;-57
2021/12/14 06:57:03;;;;;;;28.63;17.83;;;7.60;1.00;;;;;;5036194;28;20217;-57
2021/12/14 06:59:47;;;;;;;31.93;19.63;;;7.60;1.00;;;;;;5036940;28;20207;-57
2021/12/14 07:02:50;;;;;;;29.73;19.77;;;7.50;1.00;;;;;;5026975;28;20228;-57
2021/12/14 07:05:46;;;;;;;30.70;19.60;;;7.60;1.00;;;;;;5028939;28;20223;-57
2021/12/14 07:08:24;;;;;;;33.63;20.10;;;7.60;17.60;;;;;;5017519;28;20257;-57
2021/12/14 07:10:53;;;;;;;28.07;19.80;;;7.60;91.90;;;;;;5026471;28;20671;-58
2021/12/14 07:13:28;;;;;;;30.77;21.30;;;7.60;99.90;;;;;;5036954;28;20324;-57
2021/12/14 07:15:55;;;;;;;33.43;20.17;;;7.60;99.90;;;;;;5035441;28;20216;-57
2021/12/14 07:18:32;;;;;;;29.97;19.07;;;7.60;99.90;;;;;;5038590;28;20203;-57
2021/12/14 07:20:59;;;;;;;31.53;20.80;;;7.60;99.90;;;;;;5037162;28;20188;-57
2021/12/14 07:23:37;;;;;;;33.17;21.60;;;7.60;99.90;;;;;;5024918;28;20253;-58
2021/12/14 07:26:11;;;;;;;34.70;21.90;;;7.60;99.90;;;;;;5037751;28;20244;-57
2021/12/14 07:28:41;;;;;;;33.43;21.93;;;7.60;99.90;;;;;;5009247;28;21487;-56
2021/12/14 07:31:19;;;;;;;35.37;22.30;;;7.60;99.90;;;;;;5029219;28;20289;-57
2021/12/14 07:33:50;;;;;;;35.50;22.00;;;7.60;99.90;;;;;;5039214;28;20209;-57
2021/12/14 07:36:25;;;;;;;33.43;21.53;;;7.60;99.90;;;;;;5047324;28;20227;-60
2021/12/14 07:38:56;;;;;;;34.80;22.67;;;7.60;99.90;;;;;;5045815;28;20195;-59
2021/12/14 07:41:37;;;;;;;32.20;22.07;;;7.60;99.90;;;;;;5051913;28;20326;-59
2021/12/14 07:44:13;;;;;;;33.40;20.70;;;7.70;99.90;;;;;;5050933;28;20201;-57
2021/12/14 07:46:55;;;;;;;35.10;21.80;;;7.70;99.90;;;;;;5048043;28;20282;-57
2021/12/14 07:49:33;;;;;;;31.23;20.10;;;7.70;80.70;;;;;;5029767;28;20528;-58
2021/12/14 07:52:09;;;;;;;36.37;22.53;;;7.70;13.00;;;;;;5025480;28;20204;-57
2021/12/14 07:54:41;;;;;;;33.27;21.03;;;7.60;1.00;;;;;;5049895;28;20260;-58
2021/12/14 07:57:11;;;;;;;35.43;22.20;;;7.60;1.00;;;;;;5049973;28;20709;-57
2021/12/14 07:59:44;;;;;;;38.23;23.00;;;7.60;1.00;;;;;;5049415;28;20203;-57
2021/12/14 08:02:16;;;;;;;36.67;22.57;;;7.60;1.00;;;;;;5051850;28;20222;-57
2021/12/14 08:05:12;;;;;;;34.27;22.27;;;7.70;1.00;;;;;;5047546;28;20220;-58
2021/12/14 08:07:43;;;;;;;36.97;22.30;;;7.70;1.00;;;;;;5015875;28;20208;-57
2021/12/14 08:10:16;;;;;;;33.03;21.77;;;7.70;1.00;;;;;;5033106;28;20191;-57
2021/12/14 08:12:46;;;;;;;33.83;22.97;;;7.70;1.00;;;;;;5050847;28;20195;-57
2021/12/14 08:15:24;;;;;;;35.40;22.20;;;7.70;1.00;;;;;;5049889;28;20198;-57
2021/12/14 08:18:08;;;;;;;36.03;22.83;;;7.70;1.00;;;;;;5031885;28;20207;-57
2021/12/14 08:20:40;;;;;;;35.93;22.97;;;7.70;1.00;;;;;;5046812;28;20261;-56
2021/12/14 08:23:32;;;;;;;38.70;22.77;;;7.70;1.00;;;;;;5032605;28;20207;-57
2021/12/14 08:26:21;;;;;;;36.93;21.67;;;7.70;1.00;;;;;;5031772;28;20244;-58
2021/12/14 08:28:53;;;;;;;36.67;23.20;;;7.70;1.00;;;;;;5034274;28;20225;-59
2021/12/14 08:31:24;;;;;;;34.87;23.03;;;7.70;1.00;;;;;;5032505;28;20203;-59
2021/12/14 08:34:01;;;;;;;35.17;22.23;;;7.70;1.00;;;;;;5049595;28;20188;-59
2021/12/14 08:36:59;;;;;;;36.70;23.23;;;7.70;1.00;;;;;;5045569;28;20187;-59
2021/12/14 08:39:33;;;;;;;34.57;21.87;;;7.70;1.00;;;;;;5048954;28;20819;-58
2021/12/14 08:42:29;;;;;;;35.80;23.47;;;7.70;1.00;;;;;;5048338;28;20231;-58
2021/12/14 08:44:59;;;;;;;38.23;23.57;;;7.80;1.00;;;;;;5047116;28;20214;-57
2021/12/14 08:47:34;;;;;;;38.23;24.20;;;7.80;99.90;;;;;;5037306;28;20199;-58
2021/12/14 08:50:07;;;;;;;36.27;22.87;;;7.80;99.90;;;;;;5030669;28;20195;-58
2021/12/14 08:52:35;;;;;;;38.13;23.63;;;7.80;99.90;;;;;;5051484;28;20195;-59
2021/12/14 08:55:08;;;;;;;39.20;22.90;;;7.90;99.90;;;;;;5024094;28;20199;-60
2021/12/14 08:57:35;;;;;;;39.13;22.70;;;7.90;99.90;;;;;;5037581;28;20223;-58
2021/12/14 09:00:15;;;;;;;38.60;23.93;;;7.90;51.50;;;;;;5051633;28;20250;-60
2021/12/14 09:02:45;;;;;;;34.27;22.47;;;7.90;1.00;;;;;;5049194;28;20211;-58
2021/12/14 09:05:19;;;;;;;32.17;21.47;;;7.90;1.00;;;;;;5047831;28;20296;-57
2021/12/14 09:07:47;;;;;;;31.83;21.27;;;8.00;1.00;;;;;;5048646;28;20270;-58
2021/12/14 09:10:19;;;;;;;37.10;23.53;;;8.00;1.00;;;;;;5050055;28;20191;-59
2021/12/14 09:12:48;;;;;;;33.07;21.90;;;7.90;1.00;;;;;;5035435;28;20314;-59
2021/12/14 09:15:27;;;;;;;36.27;22.43;;;7.90;1.00;;;;;;5013012;28;20283;-59
2021/12/14 09:17:55;;;;;;;37.07;23.33;;;7.90;1.00;;;;;;5047063;28;20245;-58
2021/12/14 09:20:29;;;;;;;35.40;23.47;;;7.90;1.00;;;;;;5047158;28;20210;-59
2021/12/14 09:23:08;;;;;;;39.40;23.43;;;8.00;1.00;;;;;;5048656;28;20207;-58
2021/12/14 09:25:36;;;;;;;36.27;23.30;;;8.00;1.00;;;;;;5029349;28;20195;-59
2021/12/14 09:28:05;;;;;;;36.10;23.37;;;8.00;1.00;;;;;;5029885;28;20223;-58
2021/12/14 09:30:36;;;;;;;40.50;24.83;;;8.00;1.00;;;;;;5049505;28;20183;-59
2021/12/14 09:33:05;;;;;;;37.30;23.67;;;8.00;1.00;;;;;;5015178;28;20204;-58
2021/12/14 09:35:35;;;;;;;34.53;23.73;;;8.00;1.00;;;;;;5044550;28;20747;-59
2021/12/14 09:38:06;;;;;;;38.67;25.60;;;8.10;99.90;;;;;;5047530;28;20198;-57
2021/12/14 09:40:38;;;;;;;35.10;24.63;;;8.20;99.90;;;;;;5048968;28;20693;-58
2021/12/14 09:43:05;;;;;;;38.17;24.50;;;8.20;99.90;;;;;;5046617;28;20234;-58
2021/12/14 09:45:42;;;;;;;40.90;24.50;;;8.20;99.90;;;;;;5044926;28;20202;-57
2021/12/14 09:48:14;;;;;;;38.03;24.03;;;8.30;99.90;;;;;;5039614;28;20258;-59
2021/12/14 09:50:43;;;;;;;41.03;23.63;;;8.30;99.90;;;;;;5011372;28;20202;-58
2021/12/14 09:53:16;;;;;;;38.03;24.53;;;8.40;11.80;;;;;;5045876;28;20273;-59
2021/12/14 09:55:46;;;;;;;36.30;24.27;;;8.40;1.00;;;;;;5042978;28;20194;-59
2021/12/14 09:58:17;;;;;;;35.90;24.43;;;8.40;1.00;;;;;;5045900;28;20211;-59
2021/12/14 10:00:56;;;;;;;40.57;25.63;;;8.40;1.00;;;;;;5035440;28;20223;-59
2021/12/14 10:03:24;;;;;;;42.13;25.83;;;8.40;1.00;;;;;;5029151;28;20635;-59
2021/12/14 10:05:57;;;;;;;40.00;25.37;;;8.40;1.00;;;;;;5026972;28;21085;-59
2021/12/14 10:08:32;;;;;;;35.83;23.93;;;8.50;1.00;;;;;;5028790;28;20272;-59
2021/12/14 10:11:09;;;;;;;42.13;25.23;;;8.50;1.00;;;;;;5046969;28;20686;-59
2021/12/14 10:13:43;;;;;;;39.10;25.37;;;8.50;1.00;;;;;;5030973;28;20199;-59
2021/12/14 10:16:11;;;;;;;41.03;27.70;;;8.60;1.00;;;;;;5022568;28;20245;-60
2021/12/14 10:18:42;;;;;;;44.10;25.97;;;8.60;1.00;;;;;;5034930;28;20223;-59
2021/12/14 10:21:22;;;;;;;39.67;26.20;;;8.60;1.00;;;;;;5046132;28;20277;-59
2021/12/14 10:23:51;;;;;;;39.57;24.77;;;8.60;1.00;;;;;;5042590;28;20270;-60
2021/12/14 10:26:21;;;;;;;43.30;25.57;;;8.60;1.00;;;;;;5043937;28;20268;-58
2021/12/14 10:28:54;;;;;;;37.30;24.53;;;8.60;1.00;;;;;;5049130;28;20219;-58
2021/12/14 10:31:37;;;;;;;38.70;25.03;;;8.60;1.00;;;;;;5050474;28;20196;-57
2021/12/14 10:34:09;;;;;;;37.93;25.57;;;8.60;1.00;;;;;;5047350;28;20206;-59
2021/12/14 10:36:42;;;;;;;41.60;25.73;;;8.70;1.00;;;;;;5044286;28;20205;-58
2021/12/14 10:44:47;;;;;;;37.40;25.30;;;8.80;1.00;;;;;;5049376;28;20277;-59
2021/12/14 10:47:17;;;;;;;39.90;25.77;;;8.70;1.00;;;;;;5029126;28;20261;-57
2021/12/14 10:49:48;;;;;;;42.03;25.97;;;8.80;99.90;;;;;;5028605;28;20203;-58
2021/12/14 10:52:20;;;;;;;41.33;25.70;;;8.80;99.90;;;;;;5050058;28;20195;-59
2021/12/14 10:54:55;;;;;;;42.00;24.57;;;8.90;1.00;;;;;;5027953;28;21164;-59
2021/12/14 10:57:29;;;;;;;39.37;25.83;;;8.90;99.90;;;;;;5044929;28;20194;-59
2021/12/14 11:00:05;;;;;;;38.00;25.13;;;8.90;99.90;;;;;;5027504;28;20212;-59
2021/12/14 11:02:39;;;;;;;40.93;27.33;;;9.00;99.90;;;;;;5029246;28;21628;-58
2021/12/14 11:05:15;;;;;;;38.87;25.63;;;8.90;99.90;;;;;;5051316;28;20316;-59
2021/12/14 11:07:45;;;;;;;37.87;25.03;;;9.00;99.90;;;;;;5048923;28;20726;-58
2021/12/14 11:10:18;;;;;;;38.27;24.87;;;9.10;99.90;;;;;;5050846;28;20241;-57
2021/12/14 11:12:49;;;;;;;36.87;24.50;;;9.10;99.00;;;;;;5053446;28;20199;-59
2021/12/14 11:15:25;;;;;;;37.27;24.93;;;9.30;99.90;;;;;;5049701;28;20199;-59
2021/12/14 11:18:08;;;;;;;36.97;24.37;;;9.50;1.00;;;;;;5052376;28;20564;-59
2021/12/14 11:20:41;;;;;;;35.43;23.20;;;9.60;1.00;;;;;;5032634;28;20197;-59
2021/12/14 11:23:14;;;;;;;30.60;22.70;;;9.70;1.00;;;;;;5048583;28;20289;-58
2021/12/14 11:25:54;;;;;;;34.80;23.97;;;9.60;1.00;;;;;;5052990;28;20191;-59
2021/12/14 11:28:38;;;;;;;39.93;22.97;;;9.60;1.00;;;;;;5032029;28;20199;-60
2021/12/14 11:31:11;;;;;;;34.77;22.80;;;9.70;1.00;;;;;;5053319;28;20281;-59
2021/12/14 11:33:51;;;;;;;31.40;22.27;;;9.80;1.00;;;;;;5026410;28;20291;-58
2021/12/14 11:36:33;;;;;;;30.97;20.77;;;9.80;1.00;;;;;;5050852;28;20203;-58
2021/12/14 11:39:08;;;;;;;33.63;23.27;;;9.90;1.00;;;;;;5049829;28;20229;-60
2021/12/14 11:41:41;;;;;;;33.23;23.17;;;9.90;1.00;;;;;;5036460;28;20211;-60
2021/12/14 11:44:13;;;;;;;34.03;22.77;;;10.00;1.00;;;;;;5017962;28;20314;-60
2021/12/14 11:46:55;;;;;;;36.67;22.03;;;10.20;1.00;;;;;;5028842;28;20204;-59
2021/12/14 11:49:37;;;;;;;31.43;22.30;;;10.40;99.90;;;;;;5051357;28;20187;-64
2021/12/14 11:52:04;;;;;;;33.63;20.53;;;10.60;99.90;;;;;;5047455;28;20187;-59
2021/12/14 11:54:44;;;;;;;30.47;20.57;;;10.70;99.90;;;;;;5034713;28;20267;-59
2021/12/14 11:57:15;;;;;;;26.63;19.53;;;10.60;99.90;;;;;;5052439;28;20191;-59
2021/12/14 11:59:42;;;;;;;29.33;21.63;;;10.60;99.90;;;;;;5048562;28;20674;-59
2021/12/14 12:02:09;;;;;;;30.50;21.57;;;10.50;99.90;;;;;;5050218;28;20191;-59
2021/12/14 12:04:42;;;;;;;33.03;21.47;;;10.30;99.90;;;;;;5051891;28;20219;-59
2021/12/14 12:09:56;;;;;;;31.20;21.40;;;10.30;99.90;;;;;;5049008;28;20226;-59
2021/12/14 12:12:30;;;;;;;32.43;22.00;;;10.20;99.90;;;;;;5031691;28;20196;-59
2021/12/14 12:15:02;;;;;;;30.47;22.47;;;10.10;99.90;;;;;;5031142;28;20210;-58
2021/12/14 12:17:35;;;;;;;29.43;21.50;;;10.10;99.90;;;;;;5047283;28;20587;-59
2021/12/14 12:20:30;;;;;;;30.77;21.73;;;10.10;1.00;;;;;;5042177;28;20337;-59
2021/12/14 12:23:08;;;;;;;32.73;21.93;;;10.10;99.90;;;;;;5047550;28;20211;-59
2021/12/14 12:25:37;;;;;;;30.80;21.60;;;10.10;99.90;;;;;;5052016;28;21568;-59
2021/12/14 12:28:07;;;;;;;33.93;22.03;;;10.20;1.00;;;;;;5036571;28;20228;-59
2021/12/14 12:30:48;;;;;;;30.60;21.40;;;10.20;99.90;;;;;;5051580;28;20230;-59
2021/12/14 12:33:34;;;;;;;33.10;23.17;;;10.10;99.90;;;;;;5017159;28;21284;-59
2021/12/14 12:36:35;;;;;;;28.27;21.30;;;10.20;1.00;;;;;;5045353;28;20287;-59
2021/12/14 12:39:05;;;;;;;32.83;22.67;;;10.50;99.90;;;;;;5036151;28;20215;-59
2021/12/14 12:41:52;;;;;;;29.50;21.90;;;10.60;99.90;;;;;;5031133;28;20199;-59
2021/12/14 12:44:25;;;;;;;31.37;22.60;;;10.50;99.90;;;;;;5031468;28;20250;-59
2021/12/14 12:46:56;;;;;;;31.30;22.53;;;10.40;99.90;;;;;;5047467;28;20290;-59
2021/12/14 12:49:29;;;;;;;30.03;21.87;;;10.40;99.90;;;;;;5028236;28;20218;-59
2021/12/14 12:52:14;;;;;;;34.30;23.03;;;10.40;99.90;;;;;;5048098;28;20199;-60
2021/12/14 12:54:47;;;;;;;31.37;23.43;;;10.50;99.90;;;;;;5034068;28;20194;-60
2021/12/14 12:57:33;;;;;;;33.50;24.47;;;10.60;99.90;;;;;;5046145;28;20195;-59
2021/12/14 13:00:25;;;;;;;41.73;29.60;;;10.40;99.90;;;;;;5031115;28;20204;-59
2021/12/14 13:03:12;;;;;;;34.87;25.23;;;10.40;99.90;;;;;;5050118;28;20666;-59
2021/12/14 13:05:49;;;;;;;33.60;23.73;;;10.30;99.90;;;;;;5048879;28;20192;-60
2021/12/14 13:08:33;;;;;;;32.13;23.87;;;10.10;99.90;;;;;;5028099;28;20199;-59
2021/12/14 13:11:20;;;;;;;38.00;24.40;;;10.00;1.00;;;;;;5045099;28;20521;-60
2021/12/14 13:13:51;;;;;;;47.67;22.90;;;10.00;1.00;;;;;;5028045;28;20194;-59
2021/12/14 13:16:26;;;;;;;36.83;26.27;;;9.90;1.00;;;;;;5029197;28;20294;-59
2021/12/14 13:19:00;;;;;;;40.67;25.77;;;9.90;1.00;;;;;;5045182;28;20804;-59
2021/12/14 13:21:34;;;;;;;35.07;24.83;;;9.90;1.00;;;;;;5043093;28;20207;-60
2021/12/14 13:24:10;;;;;;;35.70;25.37;;;9.90;1.00;;;;;;5049394;28;20261;-60
2021/12/14 13:27:08;;;;;;;33.50;24.33;;;9.90;1.00;;;;;;5031408;28;20219;-59
2021/12/14 13:29:46;;;;;;;39.50;26.57;;;9.90;1.00;;;;;;5046748;28;20273;-59
2021/12/14 13:32:16;;;;;;;32.43;25.07;;;9.90;1.00;;;;;;5031966;28;20195;-59
2021/12/14 13:34:43;;;;;;;38.53;24.73;;;9.80;1.00;;;;;;5051351;28;20262;-59
2021/12/14 13:37:13;;;;;;;34.73;24.27;;;9.70;1.00;;;;;;5050226;28;21086;-60
2021/12/14 13:39:40;;;;;;;43.67;29.13;;;9.70;1.00;;;;;;5051379;28;20795;-59
2021/12/14 13:42:16;;;;;;;37.17;25.43;;;9.70;1.00;;;;;;5025625;28;20546;-59
2021/12/14 13:44:50;;;;;;;36.30;24.70;;;9.70;1.00;;;;;;5052432;28;20338;-60
2021/12/14 13:47:21;;;;;;;39.73;27.03;;;9.70;1.00;;;;;;5048998;28;20195;-59
2021/12/14 13:49:49;;;;;;;42.27;26.33;;;9.70;1.00;;;;;;5015227;28;20308;-59
2021/12/14 13:52:18;;;;;;;65.93;37.83;;;9.70;1.00;;;;;;5030022;28;20293;-61
2021/12/14 13:55:22;;;;;;;41.30;28.63;;;9.80;1.00;;;;;;5050815;28;20231;-59
2021/12/14 13:57:56;;;;;;;40.73;27.87;;;9.80;1.00;;;;;;5050824;28;20208;-59
2021/12/14 14:00:37;;;;;;;37.40;27.30;;;9.70;1.00;;;;;;5047103;28;20279;-60
2021/12/14 14:03:05;;;;;;;38.27;27.20;;;9.70;1.00;;;;;;5051252;28;20209;-60
2021/12/14 14:05:32;;;;;;;47.83;33.53;;;9.70;1.00;;;;;;5052005;28;20195;-59
2021/12/14 14:08:05;;;;;;;46.27;31.33;;;9.60;1.00;;;;;;5031122;28;20278;-59
2021/12/14 14:10:33;;;;;;;44.40;31.03;;;9.60;1.00;;;;;;5028751;28;20214;-59